»·PEaware :: N8018N KSNA-KAVX

N8018N :: KSNA-KAVX

FLIGHT INFORMATION

Flight Status: Arrived
Operator: Privately registered:
United States
More flights under this callsign
Pilot: Martin K. (14811)
Aircraft: PIPER PA-28 CHEROKEE ARCHER
(PA28)
More flights by this aircraft type
Origin: KSNA John Wayne-Orange Co
United States
Destination: KAVX Catalina
United States
More flights between these airports :: More routes between these airports
Route: +SLI V21 SXC
File this flight plan on PilotEdge
Remarks:
Altitude:
(Current/Filed)
4,000ft
Speed:
(Current/Filed)
110kts
Departed: 18-Oct-20 02:55 PM
Arrived: 18-Oct-20 03:26 PM
Distance/Time
Traveled:
32nm/0:31
Distance/Time
To Go:
Arrived

Flight Plot

Page will automatically refresh every two minutes.


Map Options




Map Legend


Flown Route
Filed Route
Departure Airport
Arrival Airport
Navaid (VOR, NDB)
Fix

Horizontal Profiles

Position Reports

Time Latitude Longitude Heading Altitude Ground
Speed
18-Oct-20 14:37 33.675824 -117.871068 220 61ft 0kts
18-Oct-20 14:38 33.675823 -117.871068 220 61ft 0kts
18-Oct-20 14:39 33.675824 -117.871068 220 61ft 0kts
18-Oct-20 14:40 33.675823 -117.871068 220 61ft 0kts
18-Oct-20 14:41 33.675824 -117.871068 220 61ft 0kts
18-Oct-20 14:42 33.675824 -117.871068 220 61ft 0kts
18-Oct-20 14:43 33.675823 -117.871068 220 61ft 0kts
18-Oct-20 14:44 33.675824 -117.871068 220 61ft 0kts
18-Oct-20 14:45 33.675824 -117.871068 220 61ft 0kts
18-Oct-20 14:46 33.675824 -117.871068 220 61ft 0kts
18-Oct-20 14:47 33.675824 -117.871068 220 61ft 0kts
18-Oct-20 14:48 33.675823 -117.871068 220 61ft 0kts
18-Oct-20 14:49 33.675824 -117.871068 220 61ft 0kts
18-Oct-20 14:50 33.677289 -117.869308 27 61ft 32kts
18-Oct-20 14:51 33.681253 -117.866462 98 61ft 0kts
18-Oct-20 14:52 33.681253 -117.866462 98 61ft 0kts
18-Oct-20 14:53 33.680688 -117.865783 179 61ft 21kts
18-Oct-20 14:54 33.662300 -117.879924 225 548ft 90kts
18-Oct-20 14:55 33.650844 -117.907060 240 1354ft 89kts
18-Oct-20 14:56 33.640237 -117.934173 240 2112ft 89kts
18-Oct-20 14:57 33.625387 -117.957669 234 2845ft 87kts
18-Oct-20 14:58 33.611527 -117.980749 236 3517ft 87kts
18-Oct-20 14:59 33.597930 -118.006409 238 3954ft 104kts
18-Oct-20 15:00 33.581032 -118.038936 239 3866ft 115kts
18-Oct-20 15:01 33.564812 -118.069516 238 4009ft 108kts
18-Oct-20 15:02 33.548037 -118.100641 238 4011ft 112kts
18-Oct-20 15:03 33.530971 -118.132283 239 4016ft 113kts
18-Oct-20 15:04 33.513741 -118.164203 239 4023ft 114kts
18-Oct-20 15:05 33.496382 -118.196314 239 4032ft 114kts
18-Oct-20 15:07 33.479084 -118.228307 240 4042ft 114kts
18-Oct-20 15:08 33.461815 -118.260275 240 4055ft 114kts
18-Oct-20 15:09 33.444613 -118.291993 239 4069ft 112kts
18-Oct-20 15:10 33.427638 -118.323283 239 4081ft 111kts
18-Oct-20 15:11 33.410752 -118.354420 239 4081ft 111kts
18-Oct-20 15:12 33.393887 -118.385477 239 4081ft 111kts
18-Oct-20 15:13 33.383376 -118.418227 219 4138ft 108kts
18-Oct-20 15:14 33.371387 -118.441413 319 4277ft 105kts
18-Oct-20 15:15 33.396914 -118.425439 36 4402ft 116kts
18-Oct-20 15:16 33.426731 -118.412528 5 4357ft 126kts
18-Oct-20 15:17 33.463139 -118.406875 3 4075ft 127kts
18-Oct-20 15:18 33.496571 -118.407355 321 3927ft 124kts
18-Oct-20 15:19 33.521166 -118.429350 336 3469ft 98kts
18-Oct-20 15:20 33.532219 -118.405617 138 3463ft 120kts
18-Oct-20 15:21 33.501573 -118.401311 189 3363ft 124kts
18-Oct-20 15:22 33.468672 -118.406207 191 2652ft 116kts
18-Oct-20 15:23 33.438634 -118.410567 193 2361ft 93kts
18-Oct-20 15:24 33.418339 -118.408912 107 2139ft 74kts
18-Oct-20 15:24 33.408347 -118.409910 236 1581ft 55kts
18-Oct-20 15:26 33.403469 -118.416214 104 1554ft 19kts
18-Oct-20 15:27 33.403591 -118.415636 65 1550ft 0kts

Navigation Log

Ident Type
Flight plan parsing failed, navigation log unavailable